createdAt,value
2022-08-17T00:04:20.181Z,91.20
2022-08-17T00:09:23.028Z,91.30
2022-08-17T00:14:25.997Z,91.40
2022-08-17T00:19:28.806Z,91.60
2022-08-17T00:24:32.348Z,91.70
2022-08-17T00:29:35.270Z,91.90
2022-08-17T00:34:38.966Z,92.00
2022-08-17T00:39:41.902Z,92.10
2022-08-17T00:44:45.735Z,92.20
2022-08-17T00:49:48.659Z,92.30
2022-08-17T00:54:55.358Z,92.70
2022-08-17T01:00:15.296Z,93.00
2022-08-17T01:05:27.785Z,93.10
2022-08-17T01:10:58.766Z,93.30
2022-08-17T01:16:17.472Z,93.80
2022-08-17T01:21:44.665Z,94.10
2022-08-17T01:26:48.356Z,94.70
2022-08-17T01:32:00.336Z,95.20
2022-08-17T01:37:03.611Z,95.60
2022-08-17T01:42:36.683Z,96.00
2022-08-17T01:47:40.260Z,96.30
2022-08-17T01:52:54.208Z,96.60
2022-08-17T01:57:57.206Z,96.80
2022-08-17T02:03:01.808Z,97.10
2022-08-17T02:08:04.962Z,97.40
2022-08-17T02:13:08.693Z,97.70
2022-08-17T02:18:13.337Z,97.70
2022-08-17T02:23:16.305Z,97.90
2022-08-17T02:28:19.929Z,98.00
2022-08-17T02:33:23.142Z,98.00
2022-08-17T02:38:45.171Z,97.90
2022-08-17T02:43:47.977Z,97.80
2022-08-17T02:48:51.280Z,97.80
2022-08-17T02:54:05.327Z,97.90
2022-08-17T02:59:17.114Z,98.20
2022-08-17T03:04:20.020Z,98.10
2022-08-17T03:09:23.183Z,98.10
2022-08-17T03:14:26.466Z,98.30
2022-08-17T03:19:29.280Z,98.70
2022-08-17T03:24:32.104Z,98.50
2022-08-17T03:29:35.004Z,98.40
2022-08-17T03:34:38.062Z,98.50
2022-08-17T03:39:40.990Z,98.40
2022-08-17T03:44:48.341Z,98.50
2022-08-17T03:50:10.545Z,98.60
2022-08-17T03:55:36.193Z,98.80
2022-08-17T04:00:45.466Z,98.90
2022-08-17T04:05:48.370Z,99.00
2022-08-17T04:10:51.319Z,98.90
2022-08-17T04:15:54.856Z,98.90
2022-08-17T04:20:57.793Z,99.00
2022-08-17T04:26:01.702Z,99.00
2022-08-17T04:31:06.194Z,99.20
2022-08-17T04:36:10.901Z,99.20
2022-08-17T04:41:33.877Z,99.10
2022-08-17T04:46:37.068Z,99.10
2022-08-17T04:51:56.280Z,99.10
2022-08-17T04:56:59.817Z,98.90
2022-08-17T05:02:02.685Z,98.80
2022-08-17T05:07:05.754Z,98.80
2022-08-17T05:12:09.073Z,98.40
2022-08-17T05:17:11.949Z,98.00
2022-08-17T05:22:15.182Z,97.70
2022-08-17T05:27:18.792Z,97.60
2022-08-17T05:32:39.284Z,97.50
2022-08-17T05:37:43.205Z,97.30
2022-08-17T05:42:46.167Z,96.80
2022-08-17T05:47:48.996Z,96.40
2022-08-17T05:53:07.440Z,96.20
2022-08-17T05:59:13.857Z,96.40
2022-08-17T06:04:57.539Z,96.20
2022-08-17T06:10:35.823Z,96.20
2022-08-17T06:16:33.191Z,96.40
2022-08-17T06:21:48.962Z,96.00
2022-08-17T06:26:54.654Z,95.70
2022-08-17T06:31:58.125Z,95.30
2022-08-17T06:37:33.115Z,95.20
2022-08-17T06:42:55.018Z,95.00
2022-08-17T06:48:53.964Z,94.70
2022-08-17T06:54:18.788Z,94.30
2022-08-17T06:59:54.488Z,93.80
2022-08-17T07:04:59.131Z,93.00
2022-08-17T07:10:02.525Z,92.20
2022-08-17T07:15:20.242Z,91.40
2022-08-17T07:20:23.194Z,90.80
2022-08-17T07:25:26.439Z,90.00
2022-08-17T07:30:47.004Z,88.40
2022-08-17T07:35:50.875Z,85.60
2022-08-17T07:41:03.118Z,83.40
2022-08-17T07:47:11.677Z,81.70
2022-08-17T07:52:50.770Z,80.10
2022-08-17T07:57:57.488Z,78.80
2022-08-17T08:03:13.697Z,77.20
2022-08-17T08:08:43.748Z,76.20
2022-08-17T08:13:46.661Z,74.00
2022-08-17T08:18:56.895Z,72.80
2022-08-17T08:24:30.139Z,71.20
2022-08-17T08:30:07.910Z,69.60
2022-08-17T08:35:39.021Z,67.90
2022-08-17T08:41:21.763Z,66.90
2022-08-17T08:46:42.254Z,66.10
2022-08-17T08:51:55.754Z,65.90
2022-08-17T08:57:31.005Z,64.90
2022-08-17T09:03:52.436Z,63.80
2022-08-17T09:09:34.339Z,63.30
2022-08-17T09:15:09.457Z,62.00
2022-08-17T09:20:27.519Z,62.30
2022-08-17T09:25:45.576Z,60.90
2022-08-17T09:30:55.335Z,60.00
2022-08-17T09:36:44.180Z,59.40
2022-08-17T09:41:59.555Z,58.70
2022-08-17T09:47:45.569Z,57.40
2022-08-17T09:52:54.707Z,56.00
2022-08-17T09:58:56.695Z,55.60
2022-08-17T10:04:20.321Z,54.20
2022-08-17T10:09:49.148Z,53.70
2022-08-17T10:15:34.323Z,53.50
2022-08-17T10:21:29.620Z,51.50
2022-08-17T10:26:46.175Z,52.70
2022-08-17T10:32:05.462Z,51.50
2022-08-17T10:37:25.215Z,50.70
2022-08-17T10:42:55.860Z,48.60
2022-08-17T10:48:20.582Z,46.30
2022-08-17T10:53:32.394Z,47.00
2022-08-17T10:59:00.279Z,46.70
2022-08-17T11:04:50.048Z,46.10
2022-08-17T11:10:20.714Z,45.80
2022-08-17T11:15:32.117Z,44.90
2022-08-17T11:21:39.296Z,43.80
2022-08-17T11:26:58.913Z,43.20
2022-08-17T11:32:27.097Z,42.80
2022-08-17T11:38:05.364Z,42.30
2022-08-17T11:43:28.489Z,42.30
2022-08-17T11:49:14.092Z,42.30
2022-08-17T11:54:34.458Z,41.40
2022-08-17T11:59:40.026Z,41.30
2022-08-17T12:05:16.983Z,41.30
2022-08-17T12:10:31.649Z,40.10
2022-08-17T12:15:49.637Z,39.10
2022-08-17T12:21:53.898Z,39.20
2022-08-17T12:27:01.834Z,38.90
2022-08-17T12:32:07.201Z,37.60
2022-08-17T12:37:35.287Z,37.50
2022-08-17T12:42:39.442Z,37.10
2022-08-17T12:47:42.498Z,38.30
2022-08-17T12:52:45.796Z,38.10
2022-08-17T12:57:59.777Z,37.90
2022-08-17T13:03:26.894Z,38.00
2022-08-17T13:08:48.141Z,37.60
2022-08-17T13:13:56.553Z,37.50
2022-08-17T13:19:39.923Z,37.70
2022-08-17T13:25:03.847Z,37.80
2022-08-17T13:30:12.869Z,37.60
2022-08-17T13:35:41.081Z,37.80
2022-08-17T13:40:53.229Z,37.90
2022-08-17T13:46:10.957Z,38.00
2022-08-17T13:51:23.478Z,38.20
2022-08-17T13:56:39.177Z,37.90
2022-08-17T14:01:52.827Z,37.80
2022-08-17T14:07:08.851Z,37.90
2022-08-17T14:12:16.151Z,37.70
2022-08-17T14:17:19.387Z,37.30
2022-08-17T14:22:30.631Z,37.80
2022-08-17T14:27:41.582Z,37.80
2022-08-17T14:33:00.391Z,37.70
2022-08-17T14:38:04.038Z,37.70
2022-08-17T14:43:06.985Z,37.20
2022-08-17T14:48:10.241Z,36.70
2022-08-17T14:53:16.334Z,37.50
2022-08-17T14:58:19.526Z,37.20
2022-08-17T15:03:23.526Z,37.10
2022-08-17T15:08:26.678Z,37.00
2022-08-17T15:13:30.785Z,37.00
2022-08-17T15:18:33.579Z,37.40
2022-08-17T15:23:37.505Z,37.40
2022-08-17T15:28:40.490Z,37.30
2022-08-17T15:33:43.324Z,37.10
2022-08-17T15:38:47.192Z,36.90
2022-08-17T15:43:50.344Z,36.90
2022-08-17T15:48:58.973Z,36.60
2022-08-17T15:54:22.106Z,36.50
2022-08-17T15:59:26.077Z,36.60
2022-08-17T16:04:30.929Z,37.00
2022-08-17T16:09:34.842Z,36.90
2022-08-17T16:14:37.994Z,37.10
2022-08-17T16:19:41.838Z,37.30
2022-08-17T16:24:56.965Z,37.20
2022-08-17T16:30:01.169Z,37.10
2022-08-17T16:35:12.103Z,37.30
2022-08-17T16:40:17.655Z,37.60
2022-08-17T16:45:28.256Z,37.90
2022-08-17T16:50:32.438Z,38.00
2022-08-17T16:55:35.849Z,38.20
2022-08-17T17:00:40.065Z,38.30
2022-08-17T17:06:14.418Z,38.60
2022-08-17T17:11:33.612Z,38.90
2022-08-17T17:16:45.826Z,38.50
2022-08-17T17:22:14.066Z,38.90
2022-08-17T17:27:37.313Z,39.40
2022-08-17T17:33:03.013Z,39.70
2022-08-17T17:38:15.445Z,39.90
2022-08-17T17:43:38.900Z,40.20
2022-08-17T17:48:43.238Z,40.60
2022-08-17T17:54:07.223Z,40.90
2022-08-17T17:59:38.310Z,41.40
2022-08-17T18:04:59.354Z,41.50
2022-08-17T18:10:31.796Z,41.90
2022-08-17T18:15:51.155Z,42.30
2022-08-17T18:21:07.234Z,42.70
2022-08-17T18:26:10.187Z,43.00
2022-08-17T18:31:21.639Z,43.40
2022-08-17T18:36:39.915Z,43.60
2022-08-17T18:41:54.695Z,44.00
2022-08-17T18:47:28.493Z,44.20
2022-08-17T18:52:34.017Z,44.80
2022-08-17T18:57:50.523Z,44.90
2022-08-17T19:03:00.128Z,45.20
2022-08-17T19:08:24.951Z,45.30
2022-08-17T19:13:31.292Z,45.50
2022-08-17T19:18:56.166Z,45.60
2022-08-17T19:24:11.560Z,45.60
2022-08-17T19:30:02.686Z,45.60
2022-08-17T19:35:16.641Z,46.00
2022-08-17T19:41:01.952Z,46.30
2022-08-17T19:46:26.454Z,46.80
2022-08-17T19:51:57.161Z,47.30
2022-08-17T19:57:13.249Z,48.00
2022-08-17T20:02:37.577Z,47.90
2022-08-17T20:07:56.418Z,48.20
2022-08-17T20:13:11.701Z,48.60
2022-08-17T20:18:36.836Z,49.00
2022-08-17T20:24:29.949Z,49.50
2022-08-17T20:29:54.959Z,50.00
2022-08-17T20:35:26.942Z,50.80
2022-08-17T20:40:33.801Z,51.30
2022-08-17T20:46:02.566Z,51.50
2022-08-17T20:51:28.738Z,51.80
2022-08-17T20:56:43.641Z,52.40
2022-08-17T21:02:18.702Z,52.80
2022-08-17T21:07:43.252Z,53.30
2022-08-17T21:13:07.790Z,53.90
2022-08-17T21:18:38.873Z,54.30
2022-08-17T21:24:04.853Z,54.50
2022-08-17T21:29:30.831Z,54.40
2022-08-17T21:34:37.917Z,54.70
2022-08-17T21:39:41.676Z,54.90
2022-08-17T21:44:50.743Z,55.40
2022-08-17T21:49:56.447Z,55.60
2022-08-17T21:55:02.544Z,56.00
2022-08-17T22:00:17.259Z,56.20
2022-08-17T22:05:39.622Z,56.70
2022-08-17T22:10:46.247Z,56.90
2022-08-17T22:16:04.380Z,57.20
2022-08-17T22:21:19.380Z,57.50
2022-08-17T22:26:52.675Z,57.50
2022-08-17T22:31:57.546Z,57.60
2022-08-17T22:37:27.381Z,57.60
2022-08-17T22:42:31.251Z,57.90
2022-08-17T22:47:41.204Z,58.10
2022-08-17T22:53:04.019Z,58.50
2022-08-17T22:58:36.894Z,58.80
2022-08-17T23:03:56.913Z,59.00
2022-08-17T23:09:03.112Z,59.60
2022-08-17T23:14:06.037Z,60.30
2022-08-17T23:19:12.477Z,61.00
2022-08-17T23:24:23.005Z,61.70
2022-08-17T23:29:29.483Z,61.60
2022-08-17T23:34:32.980Z,61.70
2022-08-17T23:39:36.550Z,61.60
2022-08-17T23:44:41.683Z,61.70
2022-08-17T23:49:44.499Z,61.60
2022-08-17T23:54:49.299Z,61.70
2022-08-17T23:59:52.342Z,62.10
